Luna, NM (87824)

5:31 AM MDT on September 20, 2014 (GMT -0600)
KAZALPIN2 | Change Station
CLOSE
Current Station
Personal Weather Station
Location: Alpine, AZ
Elevation: 8020 ft
Nearby Weather Stations

Elev 8020 ft 33.82 °N, 109.12 °W | Updated 1 minute ago

Clear
Clear
47.3 °F
Feels Like 47 °F
N
0.0
Wind Variable Wind from East
Gusts 0.0 mph

Today
High -- | Low -- °F
--% Chance of Precip.
Yesterday
High -- | Low -- °F
Precip. -- in
7:02 AM 7:15 PM
Waning Crescent, 13% visible
Pressure 29.84 in
Visibility 10.0 miles
Clouds Clear
Windchill 47 °F
Dew Point 46 °F
Humidity 96%
Rainfall 0.00 in
Snow Depth 1 in , 0 in , 1 in
UV 0 out of 12
Pollen 8.00 out of 12
Air Quality Not available.
Flu Activity Not available.
METAR KSJN 201054Z AUTO 00000KT 10SM CLR 16/13 A3012 RMK AO2 SLP103 T01610128

More Conditions Fewer Conditions

Pressure 29.84 in
Visibility 10.0 miles
Clouds Clear
Windchill 47 °F
Dew Point 46 °F
Humidity 96%
Rainfall 0.00 in
Snow Depth 1 in , 0 in , 1 in
UV 0 out of 12
Pollen 8.00 out of 12
Air Quality Not available.
Flu Activity Not available.
METAR KSJN 201054Z AUTO 00000KT 10SM CLR 16/13 A3012 RMK AO2 SLP103 T01610128

More Conditions Fewer Conditions

10-Day Weather Forecast

Almanac

Astronomy

Sep. 20, 2014 Rise Set
Actual Time 7:02 AM MDT 7:15 PM MDT
Civil Twilight 6:37 AM MDT 7:40 PM MDT
Nautical Twilight 6:08 AM MDT 8:09 PM MDT
Astronomical Twilight 5:39 AM MDT 8:38 PM MDT
Moon 3:52 AM MDT 5:14 PM MDT
Length of Visible Light 13h 02m
Length of Day
12h 12m
Tomorrow will be 2m 5s shorter.
Waning Crescent, 13% of the Moon is Illuminated
Today
Waning Crescent
Sep 24
New
Oct 1
First Quarter
Oct 8
Full
Oct 15
Last Quarter

Today's Extremes

State Highs State Lows

Community

WunderPhotos

Upload Photos

1,754,833 photos uploaded!

Nearby

Snow Depth

Station Depth Elevation
Sierra Blanca 1 in 10280 ft
Bateman 0 in 9300 ft
Chamita 0 in 8400 ft
North Costilla 1 in 10600 ft
Wesner Springs 3 in 11120 ft

Earthquake Activity

City Distance Mag. Time & Date
No recent earthquake activity has been reported nearby.
Minimum magnitude displayed is 2.5.

Coastal Water Temperatures

Place Temperature
No Stations Reporting

Nearby Weather Stations